Time;durP1;ratioP1;P1;durP2;ratioP2;P2;SDS_P1;SDS_P2;PMS_P1;PMS_P2;Temp;Humidity;BMP_temperature;BMP_pressure;BME280_temperature;BME280_humidity;BME280_pressure;Samples;Min_cycle;Max_cycle;Signal;HPM_P1;HPM_P2
2022/11/28 00:01:36;;;;;;;20.83;13.93;;;4.30;99.90;;;;;;5090033;28;20053;-79
2022/11/28 00:04:03;;;;;;;21.45;14.13;;;4.30;99.90;;;;;;5074078;28;20035;-79
2022/11/28 00:06:30;;;;;;;24.10;14.80;;;4.30;99.90;;;;;;5073323;28;20048;-79
2022/11/28 00:08:59;;;;;;;24.30;14.55;;;4.30;99.90;;;;;;5074080;28;20036;-79
2022/11/28 00:11:25;;;;;;;20.65;13.55;;;4.20;99.90;;;;;;5074181;28;20043;-79
2022/11/28 00:13:51;;;;;;;22.75;14.23;;;4.20;99.90;;;;;;5073910;28;20048;-79
2022/11/28 00:16:20;;;;;;;21.15;13.98;;;4.20;99.90;;;;;;5074127;28;20036;-78
2022/11/28 00:18:47;;;;;;;27.48;15.23;;;4.20;99.90;;;;;;5079925;28;20043;-83
2022/11/28 00:21:14;;;;;;;23.05;15.25;;;4.30;99.90;;;;;;5095503;28;20036;-82
2022/11/28 00:23:42;;;;;;;22.52;15.45;;;4.30;99.90;;;;;;5091521;28;20039;-86
2022/11/28 00:26:15;;;;;;;25.02;14.80;;;4.30;99.90;;;;;;5074261;28;20028;-78
2022/11/28 00:28:42;;;;;;;22.83;15.15;;;4.30;99.90;;;;;;5074217;28;20032;-86
2022/11/28 00:31:17;;;;;;;24.67;14.93;;;4.30;99.90;;;;;;5073977;28;20047;-78
2022/11/28 00:33:44;;;;;;;22.55;13.02;;;4.30;99.90;;;;;;5073668;28;20033;-82
2022/11/28 00:36:10;;;;;;;24.63;14.65;;;4.20;99.90;;;;;;5073909;28;20063;-78
2022/11/28 00:38:37;;;;;;;24.67;15.35;;;4.20;99.90;;;;;;5073871;28;20118;-78
2022/11/28 00:41:13;;;;;;;22.60;15.15;;;4.20;99.90;;;;;;5073814;28;20025;-79
2022/11/28 00:43:41;;;;;;;22.67;14.02;;;4.20;99.90;;;;;;5072675;28;20052;-78
2022/11/28 00:46:07;;;;;;;21.38;13.40;;;4.20;99.90;;;;;;5072615;28;20028;-78
2022/11/28 00:48:35;;;;;;;25.00;14.05;;;4.20;99.90;;;;;;5072859;28;20032;-78
2022/11/28 00:51:16;;;;;;;27.92;15.13;;;4.10;99.90;;;;;;5071905;28;20047;-79
2022/11/28 00:53:43;;;;;;;23.83;15.02;;;4.10;99.90;;;;;;5072090;28;20032;-84
2022/11/28 00:56:11;;;;;;;20.48;14.15;;;4.10;99.90;;;;;;5073236;28;20036;-79
2022/11/28 00:58:38;;;;;;;25.27;14.95;;;4.00;99.90;;;;;;5089012;28;20047;-79
2022/11/28 01:01:20;;;;;;;20.02;12.93;;;4.00;99.90;;;;;;5072743;28;20478;-79
2022/11/28 01:03:47;;;;;;;;;;;3.90;99.90;;;;;;5072498;28;20037;-86
2022/11/28 01:06:23;;;;;;;20.88;13.18;;;3.90;99.90;;;;;;5089256;28;19911;-78
2022/11/28 01:08:50;;;;;;;23.98;12.95;;;3.90;99.90;;;;;;5072989;28;20040;-79
2022/11/28 01:11:18;;;;;;;22.33;13.75;;;3.90;99.90;;;;;;5072549;28;20043;-78
2022/11/28 01:13:44;;;;;;;21.40;13.32;;;3.80;99.90;;;;;;5072921;28;20021;-85
2022/11/28 01:16:11;;;;;;;20.42;13.80;;;3.70;99.90;;;;;;5072825;28;20024;-78
2022/11/28 01:18:37;;;;;;;21.30;13.15;;;3.60;99.90;;;;;;5072342;28;20029;-78
2022/11/28 01:21:04;;;;;;;23.42;14.07;;;3.50;99.90;;;;;;5088089;28;20040;-78
2022/11/28 01:23:31;;;;;;;20.15;13.52;;;3.50;99.90;;;;;;5072882;28;20040;-78
2022/11/28 01:25:57;;;;;;;26.42;13.65;;;3.50;99.90;;;;;;5072682;28;20028;-79
2022/11/28 01:28:23;;;;;;;22.45;14.52;;;3.50;99.90;;;;;;5073077;28;20028;-78
2022/11/28 01:30:50;;;;;;;21.48;13.70;;;3.40;99.90;;;;;;5073098;28;20036;-79
2022/11/28 01:33:16;;;;;;;24.33;14.63;;;3.40;99.90;;;;;;5072521;28;20044;-78
2022/11/28 01:35:52;;;;;;;22.02;13.50;;;3.40;99.90;;;;;;5072887;28;20032;-79
2022/11/28 01:38:18;;;;;;;24.25;14.52;;;3.40;99.90;;;;;;5071147;28;20043;-78
2022/11/28 01:40:45;;;;;;;26.17;13.85;;;3.40;99.90;;;;;;5073009;28;20028;-79
2022/11/28 01:43:11;;;;;;;24.27;14.57;;;3.40;99.90;;;;;;5073324;28;20033;-78
2022/11/28 01:45:39;;;;;;;20.02;14.27;;;3.40;99.90;;;;;;5072039;28;20040;-78
2022/11/28 01:48:06;;;;;;;24.42;16.00;;;3.40;99.90;;;;;;5072977;28;20178;-79
2022/11/28 01:50:35;;;;;;;24.65;15.07;;;3.50;99.90;;;;;;5088326;28;20497;-78
2022/11/28 01:53:05;;;;;;;25.25;14.80;;;3.60;99.90;;;;;;5072607;28;20032;-80
2022/11/28 01:55:38;;;;;;;24.48;13.57;;;3.60;99.90;;;;;;5072951;28;20029;-78
2022/11/28 01:58:05;;;;;;;23.90;14.82;;;3.70;99.90;;;;;;5072154;28;20036;-78
2022/11/28 02:00:33;;;;;;;22.83;13.40;;;3.70;99.90;;;;;;5073432;28;20048;-79
2022/11/28 02:03:05;;;;;;;27.75;14.20;;;3.80;99.90;;;;;;5072622;28;20045;-79
2022/11/28 02:05:32;;;;;;;20.60;13.98;;;3.80;99.90;;;;;;5071630;28;20044;-79
2022/11/28 02:07:58;;;;;;;23.88;14.80;;;3.80;99.90;;;;;;5072750;28;20028;-78
2022/11/28 02:10:46;;;;;;;24.52;15.15;;;3.80;99.90;;;;;;5072828;28;20029;-78
2022/11/28 02:13:52;;;;;;;25.13;14.60;;;3.80;99.90;;;;;;5072556;28;20032;-79
2022/11/28 02:16:30;;;;;;;24.13;13.73;;;3.80;99.90;;;;;;5073051;28;20032;-78
2022/11/28 02:19:18;;;;;;;21.40;13.98;;;3.80;99.90;;;;;;5071394;28;20051;-79
2022/11/28 02:21:47;;;;;;;20.17;13.68;;;4.00;99.90;;;;;;5072954;28;20035;-79
2022/11/28 02:24:31;;;;;;;21.00;14.07;;;3.90;99.90;;;;;;5087950;28;20036;-79
2022/11/28 02:27:08;;;;;;;26.33;14.52;;;4.00;99.90;;;;;;5072290;28;20031;-79
2022/11/28 02:30:05;;;;;;;18.02;12.35;;;3.90;99.90;;;;;;5072818;28;20029;-79
2022/11/28 02:33:05;;;;;;;19.95;14.00;;;3.90;99.90;;;;;;5072742;28;20393;-80
2022/11/28 02:35:31;;;;;;;22.00;13.23;;;3.90;99.90;;;;;;5072563;28;20040;-80
2022/11/28 02:38:19;;;;;;;22.20;13.43;;;3.90;99.90;;;;;;5088127;28;20628;-79
2022/11/28 02:41:01;;;;;;;26.02;14.13;;;3.80;99.90;;;;;;5087781;28;20048;-79
2022/11/28 02:43:45;;;;;;;23.48;13.68;;;3.80;99.90;;;;;;5072521;28;20041;-78
2022/11/28 02:46:49;;;;;;;25.25;13.57;;;3.80;99.90;;;;;;5075028;28;20027;-79
2022/11/28 02:49:22;;;;;;;24.98;13.50;;;3.80;99.90;;;;;;5092140;28;20051;-79
2022/11/28 02:52:08;;;;;;;22.70;13.35;;;3.70;99.90;;;;;;5074520;28;20045;-79
2022/11/28 02:54:37;;;;;;;22.55;12.73;;;3.70;99.90;;;;;;5073358;28;20032;-79
2022/11/28 02:57:03;;;;;;;19.83;12.68;;;3.60;99.90;;;;;;5075925;28;20039;-79
2022/11/28 02:59:50;;;;;;;19.10;12.25;;;3.60;99.90;;;;;;5076023;28;20454;-79
2022/11/28 03:02:27;;;;;;;23.90;14.82;;;3.50;99.90;;;;;;5075168;28;20052;-79
2022/11/28 03:05:19;;;;;;;25.98;15.02;;;3.50;99.90;;;;;;5075029;28;20043;-79
2022/11/28 03:08:02;;;;;;;22.08;13.88;;;3.50;99.90;;;;;;5075157;28;20036;-79
2022/11/28 03:10:54;;;;;;;19.13;14.07;;;3.50;99.90;;;;;;5074111;28;20044;-79
2022/11/28 03:13:23;;;;;;;24.58;15.00;;;3.50;99.90;;;;;;5069658;28;20378;-79
2022/11/28 03:16:20;;;;;;;23.20;13.25;;;3.50;99.90;;;;;;5075168;28;20033;-82
2022/11/28 03:19:18;;;;;;;23.52;13.63;;;3.50;99.90;;;;;;5074941;28;20024;-79
2022/11/28 03:22:06;;;;;;;20.00;13.27;;;3.50;99.90;;;;;;5075057;28;20039;-79
2022/11/28 03:24:46;;;;;;;24.25;14.65;;;3.50;99.90;;;;;;5075077;28;20466;-79
2022/11/28 03:27:12;;;;;;;23.08;13.85;;;3.50;99.90;;;;;;5074549;28;20167;-79
2022/11/28 03:29:45;;;;;;;24.30;14.15;;;3.50;99.90;;;;;;5074989;28;20036;-79
2022/11/28 03:32:26;;;;;;;24.60;13.45;;;3.50;99.90;;;;;;5074401;28;20043;-80
2022/11/28 03:34:58;;;;;;;21.35;13.70;;;3.40;99.90;;;;;;5074915;28;20052;-85
2022/11/28 03:37:32;;;;;;;19.60;13.30;;;3.40;99.90;;;;;;5074945;28;20485;-79
2022/11/28 03:40:02;;;;;;;21.48;13.27;;;3.40;99.90;;;;;;5074572;28;20031;-79
2022/11/28 03:42:35;;;;;;;19.95;13.07;;;3.40;99.90;;;;;;5073547;28;20036;-80
2022/11/28 03:45:12;;;;;;;23.17;14.38;;;3.40;99.90;;;;;;5074536;28;20029;-79
2022/11/28 03:47:42;;;;;;;21.15;12.80;;;3.30;99.90;;;;;;5074558;28;20040;-79
2022/11/28 03:50:17;;;;;;;24.08;13.70;;;3.30;99.90;;;;;;5073077;28;20474;-80
2022/11/28 03:52:54;;;;;;;24.88;14.45;;;3.30;99.90;;;;;;5075128;28;20041;-79
2022/11/28 03:55:26;;;;;;;22.75;14.27;;;3.30;99.90;;;;;;5075171;28;20442;-80
2022/11/28 03:58:08;;;;;;;23.30;14.68;;;3.30;99.90;;;;;;5074049;28;20118;-79
2022/11/28 04:00:45;;;;;;;23.40;14.10;;;3.30;99.90;;;;;;5075046;28;20045;-79
2022/11/28 04:03:25;;;;;;;22.38;13.38;;;3.20;99.90;;;;;;5074766;28;20390;-79
2022/11/28 04:06:13;;;;;;;22.67;14.48;;;3.20;99.90;;;;;;5074884;28;20473;-80
2022/11/28 04:08:43;;;;;;;23.08;15.27;;;3.20;99.90;;;;;;5075103;28;20366;-80
2022/11/28 04:11:17;;;;;;;21.73;14.60;;;3.10;99.90;;;;;;5074286;28;20037;-80
2022/11/28 04:13:59;;;;;;;24.63;16.05;;;3.10;99.90;;;;;;5073360;28;20294;-80
2022/11/28 04:17:03;;;;;;;23.85;15.55;;;3.10;99.90;;;;;;5073217;28;20043;-80
2022/11/28 04:19:49;;;;;;;23.40;14.43;;;3.10;99.90;;;;;;5063290;28;20044;-80
2022/11/28 04:22:23;;;;;;;29.02;15.52;;;3.20;99.90;;;;;;5073980;28;20048;-78
2022/11/28 04:24:54;;;;;;;25.77;15.48;;;3.10;99.90;;;;;;5074578;28;20055;-79
2022/11/28 04:27:25;;;;;;;27.88;15.38;;;3.10;99.90;;;;;;5073675;28;20041;-78
2022/11/28 04:29:56;;;;;;;;;;;3.10;99.90;;;;;;5095819;28;20016;-80
2022/11/28 04:32:24;;;;;;;26.30;15.38;;;3.10;99.90;;;;;;5113210;28;19900;-80
2022/11/28 04:35:02;;;;;;;25.38;14.35;;;3.10;99.90;;;;;;5075154;28;20070;-78
2022/11/28 04:37:31;;;;;;;21.45;13.65;;;3.10;99.90;;;;;;5074311;28;20028;-77
2022/11/28 04:39:59;;;;;;;25.77;15.82;;;3.00;99.90;;;;;;5074293;28;20478;-78
2022/11/28 04:42:37;;;;;;;23.15;14.93;;;3.00;99.90;;;;;;5075192;28;20041;-78
2022/11/28 04:45:15;;;;;;;24.92;13.63;;;2.90;99.90;;;;;;5072237;28;20047;-78
2022/11/28 04:47:43;;;;;;;24.58;14.55;;;2.90;99.90;;;;;;5074243;28;20051;-78
2022/11/28 04:50:10;;;;;;;26.08;15.73;;;2.90;99.90;;;;;;5073900;28;20029;-79
2022/11/28 04:53:02;;;;;;;23.00;13.90;;;2.90;99.90;;;;;;5073888;28;20401;-78
2022/11/28 04:55:33;;;;;;;24.10;14.43;;;2.80;99.90;;;;;;5073839;28;20091;-78
2022/11/28 04:58:10;;;;;;;21.48;11.75;;;2.80;99.90;;;;;;5074872;28;20039;-82
2022/11/28 05:00:38;;;;;;;26.35;14.98;;;2.80;99.90;;;;;;5072446;28;20052;-78
2022/11/28 05:03:05;;;;;;;23.88;14.65;;;2.80;99.90;;;;;;5072781;28;20495;-78
2022/11/28 05:05:43;;;;;;;24.38;14.43;;;2.80;99.90;;;;;;5073580;28;20044;-79
2022/11/28 05:08:09;;;;;;;23.42;14.40;;;2.80;99.90;;;;;;5073012;28;20032;-78
2022/11/28 05:10:36;;;;;;;24.75;14.77;;;2.80;99.90;;;;;;5073583;28;20036;-78
2022/11/28 05:13:03;;;;;;;23.65;14.63;;;2.80;99.90;;;;;;5073504;28;20032;-79
2022/11/28 05:15:29;;;;;;;28.30;16.30;;;2.80;99.90;;;;;;5073656;28;20033;-78
2022/11/28 05:17:55;;;;;;;26.27;15.75;;;2.70;99.90;;;;;;5072863;28;20029;-78
2022/11/28 05:20:21;;;;;;;24.83;15.40;;;2.80;99.90;;;;;;5073395;28;20036;-78
2022/11/28 05:22:47;;;;;;;28.38;16.45;;;2.80;99.90;;;;;;5073109;28;20040;-78
2022/11/28 05:25:13;;;;;;;31.85;16.75;;;2.80;99.90;;;;;;5073138;28;20028;-78
2022/11/28 05:27:40;;;;;;;24.88;15.13;;;2.80;99.90;;;;;;5073498;28;20078;-78
2022/11/28 05:30:07;;;;;;;26.13;14.00;;;2.90;99.90;;;;;;5071868;28;20469;-79
2022/11/28 05:32:33;;;;;;;26.55;14.90;;;2.90;99.90;;;;;;5072977;28;20041;-78
2022/11/28 05:34:59;;;;;;;26.58;14.80;;;2.80;99.90;;;;;;5073564;28;20043;-85
2022/11/28 05:37:25;;;;;;;19.98;13.50;;;2.80;99.90;;;;;;5073074;28;20036;-79
2022/11/28 05:39:51;;;;;;;19.95;12.43;;;2.90;99.90;;;;;;5073697;28;20051;-79
2022/11/28 05:42:17;;;;;;;21.67;12.88;;;2.90;99.90;;;;;;5071777;28;20044;-79
2022/11/28 05:44:43;;;;;;;22.13;13.15;;;2.90;99.90;;;;;;5072775;28;20029;-79
2022/11/28 05:47:10;;;;;;;21.73;12.38;;;2.90;99.90;;;;;;5071179;28;20028;-79
2022/11/28 05:49:36;;;;;;;22.83;12.68;;;2.90;99.90;;;;;;5071920;28;20035;-80
2022/11/28 05:52:02;;;;;;;22.17;13.15;;;2.90;99.90;;;;;;5072485;28;20032;-85
2022/11/28 05:54:29;;;;;;;21.00;13.02;;;2.90;99.90;;;;;;5072701;28;20028;-79
2022/11/28 05:56:55;;;;;;;23.23;12.50;;;2.90;99.90;;;;;;5071469;28;20051;-79
2022/11/28 05:59:21;;;;;;;21.05;12.48;;;2.90;99.90;;;;;;5072176;28;20055;-80
2022/11/28 06:01:48;;;;;;;17.67;13.02;;;2.90;99.90;;;;;;5072617;28;20045;-80
2022/11/28 06:04:14;;;;;;;19.35;12.45;;;3.00;99.90;;;;;;5071416;28;20040;-82
2022/11/28 06:06:40;;;;;;;22.52;12.93;;;3.00;99.90;;;;;;5070550;28;20028;-80
2022/11/28 06:09:06;;;;;;;22.73;12.88;;;3.00;99.90;;;;;;5071191;28;20374;-83
2022/11/28 06:11:34;;;;;;;18.95;12.75;;;3.00;99.90;;;;;;5076879;28;20040;-83
2022/11/28 06:14:01;;;;;;;20.92;13.95;;;3.00;99.90;;;;;;5070965;28;20036;-84
2022/11/28 06:16:29;;;;;;;20.80;12.70;;;3.00;99.90;;;;;;5086426;28;20036;-83
2022/11/28 06:18:59;;;;;;;21.23;11.93;;;3.00;99.90;;;;;;5070207;28;20055;-84
2022/11/28 06:21:27;;;;;;;21.38;14.20;;;2.90;99.90;;;;;;5073911;28;20032;-84
2022/11/28 06:23:53;;;;;;;20.95;12.13;;;2.90;99.90;;;;;;5073927;28;20041;-83
2022/11/28 06:26:21;;;;;;;22.38;12.20;;;2.90;99.90;;;;;;5074329;28;20103;-84
2022/11/28 06:28:48;;;;;;;21.77;12.95;;;2.90;99.90;;;;;;5091058;28;20378;-84
2022/11/28 06:31:23;;;;;;;19.33;12.88;;;2.90;99.90;;;;;;5074100;28;20032;-84
2022/11/28 06:33:50;;;;;;;17.90;11.48;;;2.90;99.90;;;;;;5075489;28;20105;-84
2022/11/28 06:36:17;;;;;;;19.83;12.65;;;2.90;99.90;;;;;;5074858;28;20039;-84
2022/11/28 06:38:44;;;;;;;21.00;11.82;;;2.90;99.90;;;;;;5076172;28;20032;-84
2022/11/28 06:41:13;;;;;;;20.40;12.48;;;2.80;99.90;;;;;;5095290;28;20028;-83
2022/11/28 06:43:40;;;;;;;19.30;11.32;;;2.80;99.90;;;;;;5096070;28;20044;-83
2022/11/28 06:46:18;;;;;;;18.10;11.57;;;2.80;99.90;;;;;;5096224;28;20032;-84
2022/11/28 06:48:45;;;;;;;21.00;11.60;;;2.80;99.90;;;;;;5095609;28;20042;-83
2022/11/28 06:51:12;;;;;;;19.45;12.00;;;2.80;99.90;;;;;;5093443;28;20028;-83
2022/11/28 06:53:39;;;;;;;17.85;11.13;;;2.80;99.90;;;;;;5110936;28;20071;-84
2022/11/28 06:56:08;;;;;;;17.52;11.13;;;2.90;99.90;;;;;;5094941;28;20393;-85
2022/11/28 06:58:34;;;;;;;18.60;11.02;;;2.80;99.90;;;;;;5095025;28;20039;-83
2022/11/28 07:01:29;;;;;;;21.63;12.38;;;2.80;99.90;;;;;;5086750;28;20049;-83
2022/11/28 07:03:56;;;;;;;25.45;15.27;;;2.80;99.90;;;;;;5072193;28;20052;-83
2022/11/28 07:06:24;;;;;;;22.58;14.32;;;2.80;99.90;;;;;;5074195;28;20386;-83
2022/11/28 07:08:50;;;;;;;32.10;18.55;;;2.80;99.90;;;;;;5076007;28;20063;-83
2022/11/28 07:11:23;;;;;;;36.72;19.80;;;2.90;99.90;;;;;;5109902;28;20397;-83
2022/11/28 07:13:49;;;;;;;33.15;19.88;;;3.00;99.90;;;;;;5083897;28;20055;-83
2022/11/28 07:16:21;;;;;;;29.30;19.70;;;3.00;99.90;;;;;;5089108;28;20036;-83
2022/11/28 07:18:48;;;;;;;25.52;17.05;;;3.00;99.90;;;;;;5090325;28;20409;-82
2022/11/28 07:21:15;;;;;;;27.75;19.95;;;3.00;99.90;;;;;;5074272;28;20033;-83
2022/11/28 07:23:42;;;;;;;26.42;17.13;;;3.10;99.90;;;;;;5074924;28;20036;-82
2022/11/28 07:26:10;;;;;;;20.95;14.95;;;3.20;99.90;;;;;;5074208;28;20460;-83
2022/11/28 07:28:37;;;;;;;27.40;16.60;;;3.20;99.90;;;;;;5072462;28;20036;-84
2022/11/28 07:31:18;;;;;;;23.00;13.55;;;3.20;99.90;;;;;;5077283;28;20028;-82
2022/11/28 07:33:45;;;;;;;;;;;3.30;99.90;;;;;;5074409;28;20033;-81
2022/11/28 07:36:23;;;;;;;32.72;20.73;;;3.40;99.90;;;;;;5089327;28;19909;-83
2022/11/28 07:39:00;;;;;;;27.85;16.17;;;3.50;99.90;;;;;;5073680;28;20036;-82
2022/11/28 07:41:26;;;;;;;28.98;15.45;;;3.60;99.90;;;;;;5092839;28;20049;-81
2022/11/28 07:43:55;;;;;;;25.35;14.65;;;3.80;99.90;;;;;;5082898;28;20045;-83
2022/11/28 07:46:22;;;;;;;18.40;12.43;;;3.80;99.90;;;;;;5073290;28;20036;-82
2022/11/28 07:48:48;;;;;;;16.35;11.50;;;3.90;99.90;;;;;;5072247;28;20366;-82
2022/11/28 07:51:19;;;;;;;16.80;11.10;;;4.00;99.90;;;;;;5073461;28;20032;-82
2022/11/28 07:53:46;;;;;;;16.67;11.13;;;4.10;99.90;;;;;;5074821;28;20478;-82
2022/11/28 07:56:15;;;;;;;15.52;10.05;;;4.10;99.90;;;;;;5092891;28;20036;-82
2022/11/28 07:58:44;;;;;;;17.55;10.05;;;4.30;99.90;;;;;;5093543;28;20028;-82
2022/11/28 08:01:12;;;;;;;17.35;10.48;;;4.40;94.90;;;;;;5074198;28;20047;-83
2022/11/28 08:03:39;;;;;;;17.15;9.73;;;4.50;88.30;;;;;;5073970;28;20043;-82
2022/11/28 08:06:06;;;;;;;14.43;10.23;;;4.70;76.50;;;;;;5073363;28;20385;-83
2022/11/28 08:08:33;;;;;;;11.32;8.05;;;4.70;72.50;;;;;;5080467;28;20036;-83
2022/11/28 08:11:01;;;;;;;12.75;9.23;;;4.70;67.90;;;;;;5072244;28;20048;-81
2022/11/28 08:13:28;;;;;;;14.00;9.00;;;4.80;59.70;;;;;;5073818;28;20036;-83
2022/11/28 08:15:55;;;;;;;14.18;8.73;;;4.90;54.20;;;;;;5073754;28;20389;-82
2022/11/28 08:18:21;;;;;;;12.50;8.93;;;4.90;49.90;;;;;;5072910;28;20032;-82
2022/11/28 08:20:47;;;;;;;13.52;8.00;;;5.00;44.90;;;;;;5073223;28;20033;-82
2022/11/28 08:23:14;;;;;;;15.73;8.88;;;5.10;42.70;;;;;;5072803;28;20351;-83
2022/11/28 08:25:40;;;;;;;11.55;8.13;;;5.10;41.70;;;;;;5063465;28;20048;-82
2022/11/28 08:28:06;;;;;;;12.43;7.80;;;5.20;39.30;;;;;;5053161;28;20036;-82
2022/11/28 08:30:32;;;;;;;11.57;7.95;;;5.20;36.10;;;;;;5053828;28;20032;-83
2022/11/28 08:32:58;;;;;;;13.40;8.35;;;5.20;35.70;;;;;;5054340;28;20033;-83
2022/11/28 08:35:24;;;;;;;12.32;8.35;;;5.30;28.10;;;;;;5067880;28;20198;-82
2022/11/28 08:37:51;;;;;;;13.07;8.38;;;5.40;28.10;;;;;;5069839;28;20037;-81
2022/11/28 08:40:17;;;;;;;13.32;7.03;;;5.40;23.60;;;;;;5103224;28;20022;-85
2022/11/28 08:42:43;;;;;;;10.93;6.55;;;5.50;20.00;;;;;;5101307;28;20039;-81
2022/11/28 08:45:10;;;;;;;13.63;7.72;;;5.60;12.20;;;;;;5093692;28;20469;-87
2022/11/28 08:47:36;;;;;;;13.75;8.65;;;5.70;9.40;;;;;;5093366;28;20142;-83
2022/11/28 08:50:03;;;;;;;12.95;8.05;;;5.80;12.50;;;;;;5094893;28;20052;-83
2022/11/28 08:52:29;;;;;;;10.55;7.38;;;5.80;15.10;;;;;;5092768;28;20464;-83
2022/11/28 08:54:55;;;;;;;12.35;7.57;;;5.90;10.00;;;;;;5075252;28;20033;-83
2022/11/28 08:57:21;;;;;;;12.68;8.18;;;5.90;7.40;;;;;;5071040;28;20032;-83
2022/11/28 08:59:48;;;;;;;9.77;6.38;;;6.00;4.30;;;;;;5071055;28;20052;-83
2022/11/28 09:02:14;;;;;;;13.50;8.20;;;6.00;2.30;;;;;;5072016;28;20036;-84
2022/11/28 09:04:40;;;;;;;11.57;7.50;;;6.10;1.00;;;;;;5072205;28;20033;-83
2022/11/28 09:07:06;;;;;;;13.93;8.18;;;6.20;1.00;;;;;;5073534;28;20036;-82
2022/11/28 09:09:32;;;;;;;12.30;8.32;;;6.20;1.00;;;;;;5073161;28;20752;-82
2022/11/28 09:11:58;;;;;;;13.18;8.55;;;6.20;1.00;;;;;;5074093;28;20405;-82
2022/11/28 09:14:27;;;;;;;15.88;8.88;;;6.30;1.00;;;;;;5094950;28;20037;-84
2022/11/28 09:16:54;;;;;;;15.88;8.95;;;6.40;1.00;;;;;;5073940;28;20032;-83
2022/11/28 09:19:20;;;;;;;13.07;8.73;;;6.40;1.00;;;;;;5072803;28;20036;-84
2022/11/28 09:21:46;;;;;;;13.07;8.70;;;6.50;1.00;;;;;;5082734;28;20067;-84
2022/11/28 09:24:15;;;;;;;12.50;8.95;;;6.50;1.00;;;;;;5091393;28;20046;-90
2022/11/28 09:26:41;;;;;;;15.57;9.65;;;6.60;1.00;;;;;;5081404;28;20036;-84
2022/11/28 09:29:07;;;;;;;15.40;9.02;;;6.60;1.00;;;;;;5074621;28;20032;-84
2022/11/28 09:31:33;;;;;;;15.48;8.68;;;6.60;1.00;;;;;;5072107;28;20035;-84
2022/11/28 09:34:02;;;;;;;13.73;8.80;;;6.70;1.00;;;;;;5072579;28;20039;-82
2022/11/28 09:36:29;;;;;;;15.75;9.35;;;6.80;1.00;;;;;;5070263;28;20043;-84
2022/11/28 09:38:57;;;;;;;12.52;7.63;;;6.80;1.00;;;;;;5072644;28;20373;-84
2022/11/28 09:42:02;;;;;;;14.30;8.98;;;6.80;1.00;;;;;;5091937;28;20035;-84
2022/11/28 09:44:49;;;;;;;12.15;7.40;;;6.80;1.00;;;;;;5079794;28;20055;-83
2022/11/28 09:47:35;;;;;;;14.43;8.02;;;6.80;1.00;;;;;;5058466;28;20040;-84
2022/11/28 09:50:14;;;;;;;11.93;8.15;;;6.90;1.00;;;;;;5052094;28;20029;-84
2022/11/28 09:52:50;;;;;;;15.73;8.85;;;6.90;1.00;;;;;;5056936;28;20044;-83
2022/11/28 09:55:32;;;;;;;12.05;7.85;;;6.90;1.00;;;;;;5068586;28;20053;-85
2022/11/28 09:58:05;;;;;;;17.00;9.88;;;6.90;1.00;;;;;;5071394;28;20059;-84
2022/11/28 10:00:36;;;;;;;17.60;10.50;;;6.90;1.00;;;;;;5056776;28;20045;-83
2022/11/28 10:03:14;;;;;;;20.45;11.43;;;7.00;1.00;;;;;;5071946;28;20033;-84
2022/11/28 10:05:58;;;;;;;35.35;19.20;;;7.00;1.00;;;;;;5074105;28;20486;-83
2022/11/28 10:08:42;;;;;;;35.97;17.55;;;7.00;1.00;;;;;;5073836;28;20040;-83
2022/11/28 10:11:30;;;;;;;20.50;11.02;;;6.90;1.00;;;;;;5075782;28;20044;-85
2022/11/28 10:14:34;;;;;;;41.55;20.73;;;6.90;1.00;;;;;;5076251;28;20037;-84
2022/11/28 10:17:19;;;;;;;20.35;10.88;;;6.80;1.00;;;;;;5076263;28;20032;-85
2022/11/28 10:19:52;;;;;;;81.47;36.83;;;6.80;1.00;;;;;;5091501;28;20037;-84
2022/11/28 10:22:25;;;;;;;23.92;12.95;;;6.80;1.00;;;;;;5074796;28;20461;-84
2022/11/28 10:24:55;;;;;;;19.73;10.70;;;6.80;1.00;;;;;;5062723;28;20095;-84
2022/11/28 10:27:28;;;;;;;18.87;10.10;;;6.80;1.00;;;;;;5080919;28;20024;-81
2022/11/28 10:30:03;;;;;;;26.17;14.32;;;6.70;1.00;;;;;;5064256;28;20045;-84
2022/11/28 10:32:41;;;;;;;20.33;11.90;;;6.70;1.00;;;;;;5065200;28;20551;-83
2022/11/28 10:35:19;;;;;;;89.90;46.13;;;6.60;7.80;;;;;;5062695;28;20041;-83
2022/11/28 10:37:46;;;;;;;24.00;14.10;;;6.70;8.90;;;;;;5064937;28;20025;-83
2022/11/28 10:40:46;;;;;;;17.85;11.32;;;6.80;6.30;;;;;;5074008;28;20043;-85
2022/11/28 10:43:15;;;;;;;54.50;28.40;;;6.80;6.10;;;;;;5073735;28;20103;-84
2022/11/28 10:46:07;;;;;;;21.83;12.13;;;6.90;4.70;;;;;;5057575;28;20036;-84
2022/11/28 10:48:45;;;;;;;40.05;20.75;;;7.00;3.50;;;;;;5073825;28;20049;-84
2022/11/28 10:51:11;;;;;;;25.27;16.08;;;7.00;1.20;;;;;;5074900;28;20032;-85
2022/11/28 10:54:01;;;;;;;24.25;12.55;;;7.00;1.00;;;;;;5074318;28;20032;-85
2022/11/28 10:56:46;;;;;;;18.90;11.15;;;7.00;1.00;;;;;;5068755;28;20040;-87
2022/11/28 10:59:39;;;;;;;25.10;14.80;;;7.00;1.00;;;;;;5103544;28;20051;-85
2022/11/28 11:02:25;;;;;;;28.75;15.30;;;7.00;1.00;;;;;;5066002;28;20040;-87
2022/11/28 11:04:52;;;;;;;15.85;9.73;;;7.10;1.00;;;;;;5062724;28;20043;-86
2022/11/28 11:07:30;;;;;;;21.77;12.18;;;7.10;1.00;;;;;;5082963;28;20044;-86
2022/11/28 11:10:15;;;;;;;39.50;18.52;;;7.10;1.00;;;;;;5071889;28;20032;-86
2022/11/28 11:12:43;;;;;;;19.58;10.18;;;7.30;1.00;;;;;;5071360;28;20496;-89
2022/11/28 11:15:23;;;;;;;78.50;31.88;;;7.30;1.00;;;;;;5069987;28;20390;-86
2022/11/28 11:17:50;;;;;;;39.03;17.90;;;7.40;1.00;;;;;;5054981;28;20029;-86
2022/11/28 11:20:36;;;;;;;63.95;27.75;;;7.50;1.00;;;;;;5053648;28;20032;-85
2022/11/28 11:23:18;;;;;;;24.98;12.23;;;7.50;1.00;;;;;;5053905;28;20421;-89
2022/11/28 11:25:54;;;;;;;17.98;11.23;;;7.40;1.00;;;;;;5054598;28;20040;-86
2022/11/28 11:28:45;;;;;;;16.15;9.80;;;7.40;10.30;;;;;;5065747;28;20025;-86
2022/11/28 11:31:32;;;;;;;22.85;12.57;;;7.40;10.70;;;;;;5056754;28;20045;-83
2022/11/28 11:34:05;;;;;;;19.75;11.27;;;7.40;13.70;;;;;;5058450;28;20037;-86
2022/11/28 11:36:34;;;;;;;22.90;13.80;;;7.20;19.10;;;;;;5053782;28;20635;-87
2022/11/28 11:39:09;;;;;;;18.48;11.35;;;7.10;29.50;;;;;;5060183;28;20036;-87
2022/11/28 11:41:38;;;;;;;15.23;9.15;;;6.90;36.90;;;;;;5110337;28;20028;-86
2022/11/28 11:44:13;;;;;;;18.33;11.00;;;6.80;44.00;;;;;;5093868;28;20036;-79
2022/11/28 11:46:55;;;;;;;22.27;13.30;;;6.70;51.20;;;;;;5091291;28;20567;-78
2022/11/28 11:49:36;;;;;;;24.17;15.60;;;6.80;60.90;;;;;;5064084;28;20029;-91
2022/11/28 11:52:11;;;;;;;25.33;14.10;;;6.80;65.30;;;;;;5076463;28;20048;-90
2022/11/28 11:54:57;;;;;;;26.13;16.42;;;6.80;61.10;;;;;;5075440;28;20037;-89
2022/11/28 11:57:31;;;;;;;22.05;13.48;;;6.80;65.50;;;;;;5077620;28;20492;-91
2022/11/28 12:00:05;;;;;;;17.65;10.05;;;6.80;60.60;;;;;;5099936;28;20064;-90
2022/11/28 12:02:55;;;;;;;15.75;9.98;;;6.80;64.00;;;;;;5089173;28;20044;-88
2022/11/28 12:05:50;;;;;;;28.00;14.75;;;6.80;60.90;;;;;;5074215;28;20067;-85
2022/11/28 12:08:23;;;;;;;14.25;9.48;;;6.70;62.30;;;;;;5077864;28;20038;-87
2022/11/28 12:11:02;;;;;;;34.72;20.02;;;6.70;60.00;;;;;;5092659;28;20032;-87
2022/11/28 12:13:28;;;;;;;39.47;21.02;;;6.80;68.90;;;;;;5094138;28;20481;-90
2022/11/28 12:16:24;;;;;;;22.98;14.48;;;6.90;70.70;;;;;;5094850;28;20044;-90
2022/11/28 12:19:03;;;;;;;15.55;10.38;;;6.90;70.70;;;;;;5092941;28;20453;-89
2022/11/28 12:21:45;;;;;;;17.20;10.20;;;6.90;63.30;;;;;;5093737;28;20507;-89
2022/11/28 12:24:14;;;;;;;;;;;6.90;61.30;;;;;;5093624;28;20052;-84
2022/11/28 12:26:55;;;;;;;16.30;9.35;;;7.00;70.40;;;;;;5093191;28;19911;-87
2022/11/28 12:29:24;;;;;;;;;;;7.00;71.50;;;;;;5093807;28;20450;-84
2022/11/28 12:31:59;;;;;;;16.08;9.00;;;7.00;70.80;;;;;;5070217;28;20277;-84
2022/11/28 12:34:37;;;;;;;16.40;11.50;;;7.10;73.60;;;;;;5070637;28;20044;-83
2022/11/28 12:37:44;;;;;;;18.20;11.32;;;7.10;67.00;;;;;;5073137;28;20029;-84
2022/11/28 12:40:29;;;;;;;23.05;12.13;;;7.20;72.40;;;;;;5082528;28;20047;-80
2022/11/28 12:43:14;;;;;;;17.15;11.80;;;7.30;75.00;;;;;;5093319;28;20043;-78
2022/11/28 12:45:53;;;;;;;16.00;10.52;;;7.30;65.70;;;;;;5094155;28;20493;-80
2022/11/28 12:48:35;;;;;;;19.27;11.32;;;7.30;63.50;;;;;;5109073;28;20036;-79
2022/11/28 12:51:34;;;;;;;15.93;10.55;;;7.30;58.80;;;;;;5115873;28;20094;-79
2022/11/28 12:54:09;;;;;;;24.50;15.70;;;7.30;66.50;;;;;;5109952;28;20042;-79
2022/11/28 12:56:50;;;;;;;16.88;11.52;;;7.30;68.60;;;;;;5091512;28;20036;-79
2022/11/28 12:59:39;;;;;;;17.48;11.70;;;7.30;64.00;;;;;;5061286;28;20080;-79
2022/11/28 13:02:25;;;;;;;64.05;28.23;;;7.30;62.10;;;;;;5087966;28;20052;-79
2022/11/28 13:05:04;;;;;;;33.05;14.93;;;7.30;58.80;;;;;;5087368;28;20055;-79
2022/11/28 13:07:46;;;;;;;108.03;48.30;;;7.30;62.90;;;;;;5071003;28;20127;-81
2022/11/28 13:10:20;;;;;;;;;;;7.20;65.10;;;;;;5072788;28;20029;-80
2022/11/28 13:13:03;;;;;;;60.47;26.48;;;7.20;70.10;;;;;;5071976;28;19912;-82
2022/11/28 13:15:39;;;;;;;29.05;15.98;;;7.30;71.70;;;;;;5069896;28;20044;-82